Wellton, Arizona
Current Conditions -  °F | °C
As of 3:57 AM on Saturday 01 Nov 2014 (Local Time) from KNYL Reporting Station
Scattered Clouds Scattered Clouds  
Wind Chill: 21°   Ceiling: Unl
Heat Index: 21°   Visibility: 10mi
Dew Point:   Wind: 12mph
Humidity: 47%   Direction: 320°NW
Pressure: 29.78"   Gusts: NA
Location:  32.67°N, 114.15°W
Report Text: KNYL 011057Z 32010KT 10SM SCT040 21/09 A2978 RMK AO2 SLP083 T02110094
Loading
Personal Weather Stations






























Interactive Weather Map
Tropical Storm Tracking
New forecast layout! Learn more

10-Day Weather Forecast

Advertisements
Track Severe Weather on mobile